sensor_id;sensor_type;location;lat;lon;timestamp;P1;durP1;ratioP1;P2;durP2;ratioP2
78858;SDS011;68210;52.032;4.634;2023-04-08T00:00:28;35.95;;;16.88;;
78858;SDS011;68210;52.032;4.634;2023-04-08T00:02:28;34.45;;;17.20;;
78858;SDS011;68210;52.032;4.634;2023-04-08T00:04:29;45.35;;;20.05;;
78858;SDS011;68210;52.032;4.634;2023-04-08T00:06:30;31.75;;;16.50;;
78858;SDS011;68210;52.032;4.634;2023-04-08T00:08:31;36.85;;;16.00;;
78858;SDS011;68210;52.032;4.634;2023-04-08T00:10:32;33.15;;;15.93;;
78858;SDS011;68210;52.032;4.634;2023-04-08T00:12:32;40.78;;;16.52;;
78858;SDS011;68210;52.032;4.634;2023-04-08T00:14:32;42.60;;;16.77;;
78858;SDS011;68210;52.032;4.634;2023-04-08T00:16:33;41.00;;;17.38;;
78858;SDS011;68210;52.032;4.634;2023-04-08T00:18:34;38.00;;;16.30;;
78858;SDS011;68210;52.032;4.634;2023-04-08T00:20:37;48.35;;;19.83;;
78858;SDS011;68210;52.032;4.634;2023-04-08T00:22:37;39.00;;;16.23;;
78858;SDS011;68210;52.032;4.634;2023-04-08T00:24:37;44.80;;;17.42;;
78858;SDS011;68210;52.032;4.634;2023-04-08T00:26:39;34.08;;;15.75;;
78858;SDS011;68210;52.032;4.634;2023-04-08T00:28:40;42.05;;;17.88;;
78858;SDS011;68210;52.032;4.634;2023-04-08T00:30:42;50.92;;;19.52;;
78858;SDS011;68210;52.032;4.634;2023-04-08T00:32:42;44.03;;;19.05;;
78858;SDS011;68210;52.032;4.634;2023-04-08T00:34:42;42.63;;;18.70;;
78858;SDS011;68210;52.032;4.634;2023-04-08T00:36:43;51.47;;;20.70;;
78858;SDS011;68210;52.032;4.634;2023-04-08T00:38:44;45.42;;;19.45;;
78858;SDS011;68210;52.032;4.634;2023-04-08T00:40:44;53.45;;;20.23;;
78858;SDS011;68210;52.032;4.634;2023-04-08T00:42:45;54.33;;;19.60;;
78858;SDS011;68210;52.032;4.634;2023-04-08T00:44:46;56.33;;;20.05;;
78858;SDS011;68210;52.032;4.634;2023-04-08T00:46:46;46.92;;;18.17;;
78858;SDS011;68210;52.032;4.634;2023-04-08T00:48:47;50.45;;;19.83;;
78858;SDS011;68210;52.032;4.634;2023-04-08T00:50:48;47.50;;;19.40;;
78858;SDS011;68210;52.032;4.634;2023-04-08T00:52:48;49.47;;;20.23;;
78858;SDS011;68210;52.032;4.634;2023-04-08T00:54:48;45.25;;;18.13;;
78858;SDS011;68210;52.032;4.634;2023-04-08T00:56:49;46.38;;;17.85;;
78858;SDS011;68210;52.032;4.634;2023-04-08T00:58:50;49.25;;;20.00;;
78858;SDS011;68210;52.032;4.634;2023-04-08T01:00:57;44.10;;;18.67;;
78858;SDS011;68210;52.032;4.634;2023-04-08T01:03:07;42.22;;;17.98;;
78858;SDS011;68210;52.032;4.634;2023-04-08T01:05:24;47.15;;;18.52;;
78858;SDS011;68210;52.032;4.634;2023-04-08T01:07:33;46.10;;;18.23;;
78858;SDS011;68210;52.032;4.634;2023-04-08T01:09:37;48.45;;;18.73;;
78858;SDS011;68210;52.032;4.634;2023-04-08T01:11:41;54.95;;;20.17;;
78858;SDS011;68210;52.032;4.634;2023-04-08T01:13:43;52.88;;;20.27;;
78858;SDS011;68210;52.032;4.634;2023-04-08T01:15:45;49.33;;;18.88;;
78858;SDS011;68210;52.032;4.634;2023-04-08T01:17:46;46.53;;;20.02;;
78858;SDS011;68210;52.032;4.634;2023-04-08T01:19:49;52.53;;;19.77;;
78858;SDS011;68210;52.032;4.634;2023-04-08T01:21:50;42.92;;;18.73;;
78858;SDS011;68210;52.032;4.634;2023-04-08T01:24:00;49.53;;;19.38;;
78858;SDS011;68210;52.032;4.634;2023-04-08T01:26:10;52.33;;;19.27;;
78858;SDS011;68210;52.032;4.634;2023-04-08T01:28:14;52.90;;;21.00;;
78858;SDS011;68210;52.032;4.634;2023-04-08T01:30:17;53.35;;;20.27;;
78858;SDS011;68210;52.032;4.634;2023-04-08T01:32:20;57.80;;;21.80;;
78858;SDS011;68210;52.032;4.634;2023-04-08T01:34:21;40.13;;;17.75;;
78858;SDS011;68210;52.032;4.634;2023-04-08T01:36:23;51.08;;;19.50;;
78858;SDS011;68210;52.032;4.634;2023-04-08T01:38:25;45.72;;;18.63;;
78858;SDS011;68210;52.032;4.634;2023-04-08T01:40:27;43.35;;;17.55;;
78858;SDS011;68210;52.032;4.634;2023-04-08T01:42:28;49.30;;;19.30;;
78858;SDS011;68210;52.032;4.634;2023-04-08T01:44:29;46.40;;;17.70;;
78858;SDS011;68210;52.032;4.634;2023-04-08T01:50:34;35.83;;;14.15;;
78858;SDS011;68210;52.032;4.634;2023-04-08T01:52:36;45.63;;;18.77;;
78858;SDS011;68210;52.032;4.634;2023-04-08T01:56:40;47.27;;;18.97;;
78858;SDS011;68210;52.032;4.634;2023-04-08T01:58:51;48.20;;;18.95;;
78858;SDS011;68210;52.032;4.634;2023-04-08T02:00:54;42.80;;;17.58;;
78858;SDS011;68210;52.032;4.634;2023-04-08T02:02:56;50.35;;;19.38;;
78858;SDS011;68210;52.032;4.634;2023-04-08T02:04:57;50.38;;;19.23;;
78858;SDS011;68210;52.032;4.634;2023-04-08T02:06:57;50.92;;;19.10;;
78858;SDS011;68210;52.032;4.634;2023-04-08T02:09:00;49.20;;;18.63;;
78858;SDS011;68210;52.032;4.634;2023-04-08T02:11:01;49.42;;;19.95;;
78858;SDS011;68210;52.032;4.634;2023-04-08T02:13:02;48.95;;;20.08;;
78858;SDS011;68210;52.032;4.634;2023-04-08T02:15:02;48.60;;;18.30;;
78858;SDS011;68210;52.032;4.634;2023-04-08T02:19:24;54.38;;;19.52;;
78858;SDS011;68210;52.032;4.634;2023-04-08T02:21:36;50.95;;;19.75;;
78858;SDS011;68210;52.032;4.634;2023-04-08T02:23:42;51.47;;;18.80;;
78858;SDS011;68210;52.032;4.634;2023-04-08T02:25:48;51.58;;;21.23;;
78858;SDS011;68210;52.032;4.634;2023-04-08T02:27:49;47.33;;;18.70;;
78858;SDS011;68210;52.032;4.634;2023-04-08T02:29:51;48.72;;;17.50;;
78858;SDS011;68210;52.032;4.634;2023-04-08T02:31:54;50.45;;;18.42;;
78858;SDS011;68210;52.032;4.634;2023-04-08T02:33:56;50.42;;;19.15;;
78858;SDS011;68210;52.032;4.634;2023-04-08T02:35:57;46.33;;;19.20;;
78858;SDS011;68210;52.032;4.634;2023-04-08T02:37:58;46.63;;;18.92;;
78858;SDS011;68210;52.032;4.634;2023-04-08T02:39:58;47.20;;;18.58;;
78858;SDS011;68210;52.032;4.634;2023-04-08T02:41:59;44.72;;;18.17;;
78858;SDS011;68210;52.032;4.634;2023-04-08T02:44:00;49.53;;;19.45;;
78858;SDS011;68210;52.032;4.634;2023-04-08T02:46:00;44.35;;;18.35;;
78858;SDS011;68210;52.032;4.634;2023-04-08T02:48:02;46.95;;;19.45;;
78858;SDS011;68210;52.032;4.634;2023-04-08T02:50:04;46.42;;;18.77;;
78858;SDS011;68210;52.032;4.634;2023-04-08T02:52:05;47.50;;;18.65;;
78858;SDS011;68210;52.032;4.634;2023-04-08T02:54:05;54.05;;;21.83;;
78858;SDS011;68210;52.032;4.634;2023-04-08T02:56:08;39.10;;;16.67;;
78858;SDS011;68210;52.032;4.634;2023-04-08T02:58:10;45.22;;;18.33;;
78858;SDS011;68210;52.032;4.634;2023-04-08T03:00:10;47.92;;;19.55;;
78858;SDS011;68210;52.032;4.634;2023-04-08T03:02:11;39.08;;;16.70;;
78858;SDS011;68210;52.032;4.634;2023-04-08T03:04:12;45.83;;;18.17;;
78858;SDS011;68210;52.032;4.634;2023-04-08T03:06:12;47.17;;;19.48;;
78858;SDS011;68210;52.032;4.634;2023-04-08T03:08:12;45.42;;;18.35;;
78858;SDS011;68210;52.032;4.634;2023-04-08T03:10:13;44.22;;;17.35;;
78858;SDS011;68210;52.032;4.634;2023-04-08T03:12:13;49.80;;;18.40;;
78858;SDS011;68210;52.032;4.634;2023-04-08T03:14:13;44.38;;;18.60;;
78858;SDS011;68210;52.032;4.634;2023-04-08T03:16:14;43.10;;;17.80;;
78858;SDS011;68210;52.032;4.634;2023-04-08T03:18:15;44.40;;;17.50;;
78858;SDS011;68210;52.032;4.634;2023-04-08T03:20:16;41.03;;;15.30;;
78858;SDS011;68210;52.032;4.634;2023-04-08T03:22:17;47.22;;;16.98;;
78858;SDS011;68210;52.032;4.634;2023-04-08T03:24:18;53.10;;;17.75;;
78858;SDS011;68210;52.032;4.634;2023-04-08T03:26:18;56.35;;;17.23;;
78858;SDS011;68210;52.032;4.634;2023-04-08T03:28:19;100.25;;;21.45;;
78858;SDS011;68210;52.032;4.634;2023-04-08T03:30:20;72.45;;;19.13;;
78858;SDS011;68210;52.032;4.634;2023-04-08T03:32:20;59.97;;;17.98;;
78858;SDS011;68210;52.032;4.634;2023-04-08T03:34:21;58.22;;;17.55;;
78858;SDS011;68210;52.032;4.634;2023-04-08T03:36:21;66.53;;;17.58;;
78858;SDS011;68210;52.032;4.634;2023-04-08T03:38:23;64.78;;;17.60;;
78858;SDS011;68210;52.032;4.634;2023-04-08T03:40:23;67.32;;;17.25;;
78858;SDS011;68210;52.032;4.634;2023-04-08T03:42:24;72.30;;;18.02;;
78858;SDS011;68210;52.032;4.634;2023-04-08T03:44:26;129.80;;;22.92;;
78858;SDS011;68210;52.032;4.634;2023-04-08T03:46:26;70.57;;;16.92;;
78858;SDS011;68210;52.032;4.634;2023-04-08T03:48:27;71.47;;;13.85;;
78858;SDS011;68210;52.032;4.634;2023-04-08T03:50:27;91.10;;;18.65;;
78858;SDS011;68210;52.032;4.634;2023-04-08T03:52:27;125.70;;;21.08;;
78858;SDS011;68210;52.032;4.634;2023-04-08T03:54:28;92.47;;;17.38;;
78858;SDS011;68210;52.032;4.634;2023-04-08T03:56:28;92.70;;;17.90;;
78858;SDS011;68210;52.032;4.634;2023-04-08T03:58:29;76.15;;;19.30;;
78858;SDS011;68210;52.032;4.634;2023-04-08T04:00:29;87.43;;;17.17;;
78858;SDS011;68210;52.032;4.634;2023-04-08T04:02:29;87.97;;;18.70;;
78858;SDS011;68210;52.032;4.634;2023-04-08T04:04:30;117.63;;;20.17;;
78858;SDS011;68210;52.032;4.634;2023-04-08T04:06:30;73.78;;;15.57;;
78858;SDS011;68210;52.032;4.634;2023-04-08T04:08:31;65.10;;;16.15;;
78858;SDS011;68210;52.032;4.634;2023-04-08T04:10:31;71.80;;;16.23;;
78858;SDS011;68210;52.032;4.634;2023-04-08T04:12:31;84.35;;;18.85;;
78858;SDS011;68210;52.032;4.634;2023-04-08T04:14:32;121.88;;;20.17;;
78858;SDS011;68210;52.032;4.634;2023-04-08T04:16:32;68.10;;;16.13;;
78858;SDS011;68210;52.032;4.634;2023-04-08T04:18:33;48.55;;;15.38;;
78858;SDS011;68210;52.032;4.634;2023-04-08T04:20:33;53.47;;;16.65;;
78858;SDS011;68210;52.032;4.634;2023-04-08T04:22:33;75.25;;;18.25;;
78858;SDS011;68210;52.032;4.634;2023-04-08T04:24:34;53.53;;;14.25;;
78858;SDS011;68210;52.032;4.634;2023-04-08T04:26:34;125.47;;;20.20;;
78858;SDS011;68210;52.032;4.634;2023-04-08T04:28:35;136.07;;;22.10;;
78858;SDS011;68210;52.032;4.634;2023-04-08T04:30:36;47.97;;;14.52;;
78858;SDS011;68210;52.032;4.634;2023-04-08T04:32:37;97.75;;;18.58;;
78858;SDS011;68210;52.032;4.634;2023-04-08T04:34:37;57.50;;;16.33;;
78858;SDS011;68210;52.032;4.634;2023-04-08T04:36:38;83.20;;;16.05;;
78858;SDS011;68210;52.032;4.634;2023-04-08T04:38:38;71.22;;;16.27;;
78858;SDS011;68210;52.032;4.634;2023-04-08T04:40:39;47.78;;;14.65;;
78858;SDS011;68210;52.032;4.634;2023-04-08T04:42:39;60.50;;;15.70;;
78858;SDS011;68210;52.032;4.634;2023-04-08T04:44:41;56.88;;;16.75;;
78858;SDS011;68210;52.032;4.634;2023-04-08T04:46:42;48.05;;;15.02;;
78858;SDS011;68210;52.032;4.634;2023-04-08T04:48:42;72.85;;;18.25;;
78858;SDS011;68210;52.032;4.634;2023-04-08T04:50:42;107.05;;;17.85;;
78858;SDS011;68210;52.032;4.634;2023-04-08T04:52:43;59.38;;;17.27;;
78858;SDS011;68210;52.032;4.634;2023-04-08T04:54:43;52.67;;;17.33;;
78858;SDS011;68210;52.032;4.634;2023-04-08T04:56:44;56.78;;;15.95;;
78858;SDS011;68210;52.032;4.634;2023-04-08T04:58:45;47.00;;;15.77;;
78858;SDS011;68210;52.032;4.634;2023-04-08T05:00:45;60.55;;;17.33;;
78858;SDS011;68210;52.032;4.634;2023-04-08T05:02:46;53.53;;;16.42;;
78858;SDS011;68210;52.032;4.634;2023-04-08T05:04:46;95.72;;;18.30;;
78858;SDS011;68210;52.032;4.634;2023-04-08T05:06:46;122.88;;;20.10;;
78858;SDS011;68210;52.032;4.634;2023-04-08T05:08:47;73.20;;;15.80;;
78858;SDS011;68210;52.032;4.634;2023-04-08T05:10:47;44.22;;;15.57;;
78858;SDS011;68210;52.032;4.634;2023-04-08T05:12:51;62.80;;;17.08;;
78858;SDS011;68210;52.032;4.634;2023-04-08T05:14:51;89.20;;;18.90;;
78858;SDS011;68210;52.032;4.634;2023-04-08T05:16:51;67.15;;;17.33;;
78858;SDS011;68210;52.032;4.634;2023-04-08T05:18:52;111.07;;;21.02;;
78858;SDS011;68210;52.032;4.634;2023-04-08T05:20:52;81.25;;;18.40;;
78858;SDS011;68210;52.032;4.634;2023-04-08T05:22:53;136.07;;;23.77;;
78858;SDS011;68210;52.032;4.634;2023-04-08T05:24:53;71.88;;;21.38;;
78858;SDS011;68210;52.032;4.634;2023-04-08T05:26:53;125.97;;;23.25;;
78858;SDS011;68210;52.032;4.634;2023-04-08T05:28:54;110.25;;;22.33;;
78858;SDS011;68210;52.032;4.634;2023-04-08T05:30:54;106.93;;;21.55;;
78858;SDS011;68210;52.032;4.634;2023-04-08T05:32:55;128.20;;;23.35;;
78858;SDS011;68210;52.032;4.634;2023-04-08T05:34:55;65.95;;;20.60;;
78858;SDS011;68210;52.032;4.634;2023-04-08T05:36:56;61.17;;;18.95;;
78858;SDS011;68210;52.032;4.634;2023-04-08T05:38:56;86.38;;;21.00;;
78858;SDS011;68210;52.032;4.634;2023-04-08T05:40:56;50.67;;;18.55;;
78858;SDS011;68210;52.032;4.634;2023-04-08T05:42:57;52.13;;;18.92;;
78858;SDS011;68210;52.032;4.634;2023-04-08T05:44:57;82.63;;;20.33;;
78858;SDS011;68210;52.032;4.634;2023-04-08T05:46:58;93.85;;;23.58;;
78858;SDS011;68210;52.032;4.634;2023-04-08T05:48:59;221.68;;;30.70;;
78858;SDS011;68210;52.032;4.634;2023-04-08T05:50:59;64.32;;;19.60;;
78858;SDS011;68210;52.032;4.634;2023-04-08T05:53:00;96.57;;;23.70;;
78858;SDS011;68210;52.032;4.634;2023-04-08T05:55:00;89.70;;;23.60;;
78858;SDS011;68210;52.032;4.634;2023-04-08T05:57:00;74.70;;;21.27;;
78858;SDS011;68210;52.032;4.634;2023-04-08T05:59:01;84.63;;;22.80;;
78858;SDS011;68210;52.032;4.634;2023-04-08T06:01:01;98.25;;;25.60;;
78858;SDS011;68210;52.032;4.634;2023-04-08T06:03:02;91.10;;;23.77;;
78858;SDS011;68210;52.032;4.634;2023-04-08T06:05:03;128.43;;;26.30;;
78858;SDS011;68210;52.032;4.634;2023-04-08T06:07:03;77.35;;;22.10;;
78858;SDS011;68210;52.032;4.634;2023-04-08T06:09:05;103.75;;;25.90;;
78858;SDS011;68210;52.032;4.634;2023-04-08T06:11:05;105.53;;;27.20;;
78858;SDS011;68210;52.032;4.634;2023-04-08T06:13:06;58.38;;;19.05;;
78858;SDS011;68210;52.032;4.634;2023-04-08T06:15:07;89.30;;;23.02;;
78858;SDS011;68210;52.032;4.634;2023-04-08T06:17:07;73.20;;;22.15;;
78858;SDS011;68210;52.032;4.634;2023-04-08T06:19:08;106.22;;;25.45;;
78858;SDS011;68210;52.032;4.634;2023-04-08T06:21:09;84.82;;;24.73;;
78858;SDS011;68210;52.032;4.634;2023-04-08T06:23:09;70.78;;;22.73;;
78858;SDS011;68210;52.032;4.634;2023-04-08T06:25:10;90.60;;;27.42;;
78858;SDS011;68210;52.032;4.634;2023-04-08T06:27:10;84.28;;;25.02;;
78858;SDS011;68210;52.032;4.634;2023-04-08T06:29:11;66.57;;;22.85;;
78858;SDS011;68210;52.032;4.634;2023-04-08T06:31:11;105.35;;;28.05;;
78858;SDS011;68210;52.032;4.634;2023-04-08T06:33:11;76.60;;;24.98;;
78858;SDS011;68210;52.032;4.634;2023-04-08T06:35:12;79.53;;;24.55;;
78858;SDS011;68210;52.032;4.634;2023-04-08T06:37:13;65.07;;;22.05;;
78858;SDS011;68210;52.032;4.634;2023-04-08T06:39:13;107.55;;;27.15;;
78858;SDS011;68210;52.032;4.634;2023-04-08T06:41:15;66.30;;;23.88;;
78858;SDS011;68210;52.032;4.634;2023-04-08T06:43:16;64.47;;;22.33;;
78858;SDS011;68210;52.032;4.634;2023-04-08T06:45:16;67.70;;;22.85;;
78858;SDS011;68210;52.032;4.634;2023-04-08T06:47:17;74.18;;;23.08;;
78858;SDS011;68210;52.032;4.634;2023-04-08T06:49:17;61.63;;;23.30;;
78858;SDS011;68210;52.032;4.634;2023-04-08T06:51:17;77.35;;;21.77;;
78858;SDS011;68210;52.032;4.634;2023-04-08T06:53:18;63.55;;;24.52;;
78858;SDS011;68210;52.032;4.634;2023-04-08T06:55:18;97.28;;;26.88;;
78858;SDS011;68210;52.032;4.634;2023-04-08T06:57:18;80.63;;;24.70;;
78858;SDS011;68210;52.032;4.634;2023-04-08T06:59:19;62.88;;;25.75;;
78858;SDS011;68210;52.032;4.634;2023-04-08T07:01:19;50.40;;;20.35;;
78858;SDS011;68210;52.032;4.634;2023-04-08T07:03:20;49.72;;;18.95;;
78858;SDS011;68210;52.032;4.634;2023-04-08T07:05:20;53.83;;;21.67;;
78858;SDS011;68210;52.032;4.634;2023-04-08T07:07:21;59.67;;;22.95;;
78858;SDS011;68210;52.032;4.634;2023-04-08T07:09:23;56.25;;;21.73;;
78858;SDS011;68210;52.032;4.634;2023-04-08T07:11:23;66.38;;;24.42;;
78858;SDS011;68210;52.032;4.634;2023-04-08T07:13:24;54.75;;;22.55;;
78858;SDS011;68210;52.032;4.634;2023-04-08T07:15:24;56.78;;;23.33;;
78858;SDS011;68210;52.032;4.634;2023-04-08T07:17:24;60.42;;;23.58;;
78858;SDS011;68210;52.032;4.634;2023-04-08T07:19:25;86.20;;;26.75;;
78858;SDS011;68210;52.032;4.634;2023-04-08T07:21:26;89.13;;;25.58;;
78858;SDS011;68210;52.032;4.634;2023-04-08T07:23:26;60.30;;;22.60;;
78858;SDS011;68210;52.032;4.634;2023-04-08T07:25:27;62.60;;;22.52;;
78858;SDS011;68210;52.032;4.634;2023-04-08T07:27:27;61.90;;;23.77;;
78858;SDS011;68210;52.032;4.634;2023-04-08T07:29:27;58.13;;;23.25;;
78858;SDS011;68210;52.032;4.634;2023-04-08T07:31:28;58.55;;;23.80;;
78858;SDS011;68210;52.032;4.634;2023-04-08T07:33:28;55.65;;;22.55;;
78858;SDS011;68210;52.032;4.634;2023-04-08T07:35:29;62.38;;;23.42;;
78858;SDS011;68210;52.032;4.634;2023-04-08T07:37:32;81.75;;;27.75;;
78858;SDS011;68210;52.032;4.634;2023-04-08T07:39:32;58.35;;;23.30;;
78858;SDS011;68210;52.032;4.634;2023-04-08T07:41:32;64.78;;;24.35;;
78858;SDS011;68210;52.032;4.634;2023-04-08T07:43:33;56.70;;;24.15;;
78858;SDS011;68210;52.032;4.634;2023-04-08T07:45:35;70.03;;;26.92;;
78858;SDS011;68210;52.032;4.634;2023-04-08T07:47:35;54.03;;;23.90;;
78858;SDS011;68210;52.032;4.634;2023-04-08T07:49:36;61.05;;;23.48;;
78858;SDS011;68210;52.032;4.634;2023-04-08T07:51:37;51.15;;;23.20;;
78858;SDS011;68210;52.032;4.634;2023-04-08T07:53:38;48.28;;;20.70;;
78858;SDS011;68210;52.032;4.634;2023-04-08T07:55:41;47.25;;;20.25;;
78858;SDS011;68210;52.032;4.634;2023-04-08T07:57:42;49.67;;;21.95;;
78858;SDS011;68210;52.032;4.634;2023-04-08T07:59:42;38.30;;;19.02;;
78858;SDS011;68210;52.032;4.634;2023-04-08T08:01:43;43.72;;;20.17;;
78858;SDS011;68210;52.032;4.634;2023-04-08T08:03:49;41.47;;;19.38;;
78858;SDS011;68210;52.032;4.634;2023-04-08T08:05:52;50.15;;;20.25;;
78858;SDS011;68210;52.032;4.634;2023-04-08T08:07:52;46.90;;;20.48;;
78858;SDS011;68210;52.032;4.634;2023-04-08T08:09:52;38.33;;;18.25;;
78858;SDS011;68210;52.032;4.634;2023-04-08T08:11:53;36.13;;;18.10;;
78858;SDS011;68210;52.032;4.634;2023-04-08T08:13:53;42.05;;;18.83;;
78858;SDS011;68210;52.032;4.634;2023-04-08T08:15:54;39.53;;;19.83;;
78858;SDS011;68210;52.032;4.634;2023-04-08T08:17:54;41.13;;;19.70;;
78858;SDS011;68210;52.032;4.634;2023-04-08T08:19:55;37.50;;;18.20;;
78858;SDS011;68210;52.032;4.634;2023-04-08T08:21:56;37.47;;;17.33;;
78858;SDS011;68210;52.032;4.634;2023-04-08T08:23:56;33.65;;;17.50;;
78858;SDS011;68210;52.032;4.634;2023-04-08T08:25:59;36.10;;;17.77;;
78858;SDS011;68210;52.032;4.634;2023-04-08T08:28:08;29.17;;;16.45;;
78858;SDS011;68210;52.032;4.634;2023-04-08T08:30:09;30.38;;;16.20;;
78858;SDS011;68210;52.032;4.634;2023-04-08T08:32:10;29.95;;;16.27;;
78858;SDS011;68210;52.032;4.634;2023-04-08T08:34:10;28.98;;;15.27;;
78858;SDS011;68210;52.032;4.634;2023-04-08T08:36:11;30.13;;;17.17;;
78858;SDS011;68210;52.032;4.634;2023-04-08T08:38:11;24.10;;;14.70;;
78858;SDS011;68210;52.032;4.634;2023-04-08T08:40:12;27.50;;;16.67;;
78858;SDS011;68210;52.032;4.634;2023-04-08T08:44:23;26.70;;;14.80;;
78858;SDS011;68210;52.032;4.634;2023-04-08T08:46:23;27.23;;;15.35;;
78858;SDS011;68210;52.032;4.634;2023-04-08T08:48:24;25.80;;;14.25;;
78858;SDS011;68210;52.032;4.634;2023-04-08T08:50:24;26.05;;;15.10;;
78858;SDS011;68210;52.032;4.634;2023-04-08T08:52:25;25.92;;;13.90;;
78858;SDS011;68210;52.032;4.634;2023-04-08T08:54:26;25.33;;;15.10;;
78858;SDS011;68210;52.032;4.634;2023-04-08T08:56:26;25.05;;;14.68;;
78858;SDS011;68210;52.032;4.634;2023-04-08T08:58:27;24.08;;;14.52;;
78858;SDS011;68210;52.032;4.634;2023-04-08T09:00:31;22.73;;;13.32;;
78858;SDS011;68210;52.032;4.634;2023-04-08T09:02:38;24.50;;;15.32;;
78858;SDS011;68210;52.032;4.634;2023-04-08T09:04:39;21.10;;;13.07;;
78858;SDS011;68210;52.032;4.634;2023-04-08T09:07:08;20.20;;;13.18;;
78858;SDS011;68210;52.032;4.634;2023-04-08T09:09:10;21.77;;;12.90;;
78858;SDS011;68210;52.032;4.634;2023-04-08T09:11:14;21.05;;;13.65;;
78858;SDS011;68210;52.032;4.634;2023-04-08T09:13:18;20.10;;;12.85;;
78858;SDS011;68210;52.032;4.634;2023-04-08T09:15:18;17.80;;;12.60;;
78858;SDS011;68210;52.032;4.634;2023-04-08T09:17:31;17.88;;;12.77;;
78858;SDS011;68210;52.032;4.634;2023-04-08T09:19:35;20.35;;;12.98;;
78858;SDS011;68210;52.032;4.634;2023-04-08T09:21:36;18.35;;;12.82;;
78858;SDS011;68210;52.032;4.634;2023-04-08T09:23:41;17.13;;;11.63;;
78858;SDS011;68210;52.032;4.634;2023-04-08T09:25:48;17.48;;;12.13;;
78858;SDS011;68210;52.032;4.634;2023-04-08T09:27:48;19.67;;;13.43;;
78858;SDS011;68210;52.032;4.634;2023-04-08T09:29:51;15.90;;;11.50;;
78858;SDS011;68210;52.032;4.634;2023-04-08T09:31:55;16.08;;;11.95;;
78858;SDS011;68210;52.032;4.634;2023-04-08T09:33:57;17.65;;;11.52;;
78858;SDS011;68210;52.032;4.634;2023-04-08T09:35:59;17.77;;;12.00;;
78858;SDS011;68210;52.032;4.634;2023-04-08T09:38:00;17.00;;;11.75;;
78858;SDS011;68210;52.032;4.634;2023-04-08T09:40:01;17.15;;;11.50;;
78858;SDS011;68210;52.032;4.634;2023-04-08T09:42:01;15.05;;;10.95;;
78858;SDS011;68210;52.032;4.634;2023-04-08T09:44:07;13.80;;;10.48;;
78858;SDS011;68210;52.032;4.634;2023-04-08T09:46:10;14.00;;;10.15;;
78858;SDS011;68210;52.032;4.634;2023-04-08T09:48:13;16.48;;;11.48;;
78858;SDS011;68210;52.032;4.634;2023-04-08T09:50:18;15.48;;;10.63;;
78858;SDS011;68210;52.032;4.634;2023-04-08T09:52:24;15.88;;;11.85;;
78858;SDS011;68210;52.032;4.634;2023-04-08T09:54:54;17.58;;;12.18;;
78858;SDS011;68210;52.032;4.634;2023-04-08T09:57:00;16.98;;;11.90;;
78858;SDS011;68210;52.032;4.634;2023-04-08T09:59:08;17.85;;;12.80;;
78858;SDS011;68210;52.032;4.634;2023-04-08T10:01:13;17.52;;;12.13;;
78858;SDS011;68210;52.032;4.634;2023-04-08T10:05:28;18.40;;;12.48;;
78858;SDS011;68210;52.032;4.634;2023-04-08T10:07:30;18.17;;;13.00;;
78858;SDS011;68210;52.032;4.634;2023-04-08T10:09:30;15.90;;;11.43;;
78858;SDS011;68210;52.032;4.634;2023-04-08T10:11:32;18.55;;;13.60;;
78858;SDS011;68210;52.032;4.634;2023-04-08T10:13:33;16.10;;;12.10;;
78858;SDS011;68210;52.032;4.634;2023-04-08T10:15:35;18.40;;;13.48;;
78858;SDS011;68210;52.032;4.634;2023-04-08T10:17:38;16.05;;;11.32;;
78858;SDS011;68210;52.032;4.634;2023-04-08T10:19:38;18.55;;;12.88;;
78858;SDS011;68210;52.032;4.634;2023-04-08T10:21:40;16.25;;;12.43;;
78858;SDS011;68210;52.032;4.634;2023-04-08T10:23:55;16.00;;;11.82;;
78858;SDS011;68210;52.032;4.634;2023-04-08T10:25:58;14.00;;;10.27;;
78858;SDS011;68210;52.032;4.634;2023-04-08T10:32:27;14.18;;;10.10;;
78858;SDS011;68210;52.032;4.634;2023-04-08T10:34:28;11.40;;;9.30;;
78858;SDS011;68210;52.032;4.634;2023-04-08T10:36:28;15.55;;;10.43;;
78858;SDS011;68210;52.032;4.634;2023-04-08T10:38:29;13.50;;;9.65;;
78858;SDS011;68210;52.032;4.634;2023-04-08T10:40:36;13.10;;;9.25;;
78858;SDS011;68210;52.032;4.634;2023-04-08T10:42:38;13.43;;;9.93;;
78858;SDS011;68210;52.032;4.634;2023-04-08T10:44:43;14.50;;;9.63;;
78858;SDS011;68210;52.032;4.634;2023-04-08T10:46:44;12.68;;;9.02;;
78858;SDS011;68210;52.032;4.634;2023-04-08T10:48:57;14.15;;;10.25;;
78858;SDS011;68210;52.032;4.634;2023-04-08T10:51:03;14.45;;;9.13;;
78858;SDS011;68210;52.032;4.634;2023-04-08T10:53:04;11.63;;;8.93;;
78858;SDS011;68210;52.032;4.634;2023-04-08T10:55:05;15.68;;;9.50;;
78858;SDS011;68210;52.032;4.634;2023-04-08T10:57:06;14.63;;;10.73;;
78858;SDS011;68210;52.032;4.634;2023-04-08T10:59:07;12.88;;;8.95;;
78858;SDS011;68210;52.032;4.634;2023-04-08T11:01:07;11.43;;;8.85;;
78858;SDS011;68210;52.032;4.634;2023-04-08T11:03:08;13.55;;;8.93;;
78858;SDS011;68210;52.032;4.634;2023-04-08T11:05:10;11.77;;;8.40;;
78858;SDS011;68210;52.032;4.634;2023-04-08T11:07:11;16.17;;;9.50;;
78858;SDS011;68210;52.032;4.634;2023-04-08T11:09:12;11.90;;;9.05;;
78858;SDS011;68210;52.032;4.634;2023-04-08T11:11:13;12.93;;;8.95;;
78858;SDS011;68210;52.032;4.634;2023-04-08T11:13:13;11.05;;;8.68;;
78858;SDS011;68210;52.032;4.634;2023-04-08T11:15:16;13.88;;;8.80;;
78858;SDS011;68210;52.032;4.634;2023-04-08T11:17:17;14.70;;;9.00;;
78858;SDS011;68210;52.032;4.634;2023-04-08T11:19:18;13.70;;;9.77;;
78858;SDS011;68210;52.032;4.634;2023-04-08T11:21:19;13.48;;;9.02;;
78858;SDS011;68210;52.032;4.634;2023-04-08T11:23:21;11.75;;;8.43;;
78858;SDS011;68210;52.032;4.634;2023-04-08T11:25:24;10.90;;;8.00;;
78858;SDS011;68210;52.032;4.634;2023-04-08T11:27:25;11.23;;;8.35;;
78858;SDS011;68210;52.032;4.634;2023-04-08T11:29:26;13.27;;;9.18;;
78858;SDS011;68210;52.032;4.634;2023-04-08T11:31:27;13.45;;;8.90;;
78858;SDS011;68210;52.032;4.634;2023-04-08T11:33:31;12.25;;;8.13;;
78858;SDS011;68210;52.032;4.634;2023-04-08T11:35:32;11.63;;;8.82;;
78858;SDS011;68210;52.032;4.634;2023-04-08T11:37:36;13.15;;;8.82;;
78858;SDS011;68210;52.032;4.634;2023-04-08T11:39:39;12.02;;;8.90;;
78858;SDS011;68210;52.032;4.634;2023-04-08T11:41:43;12.50;;;8.50;;
78858;SDS011;68210;52.032;4.634;2023-04-08T11:43:50;13.18;;;9.30;;
78858;SDS011;68210;52.032;4.634;2023-04-08T11:45:54;13.05;;;8.43;;
78858;SDS011;68210;52.032;4.634;2023-04-08T11:47:55;11.30;;;7.88;;
78858;SDS011;68210;52.032;4.634;2023-04-08T11:49:55;11.10;;;7.60;;
78858;SDS011;68210;52.032;4.634;2023-04-08T11:51:56;10.73;;;8.13;;
78858;SDS011;68210;52.032;4.634;2023-04-08T11:53:58;10.75;;;6.95;;
78858;SDS011;68210;52.032;4.634;2023-04-08T11:56:14;10.18;;;7.53;;
78858;SDS011;68210;52.032;4.634;2023-04-08T11:58:23;10.82;;;6.97;;
78858;SDS011;68210;52.032;4.634;2023-04-08T12:00:24;10.80;;;6.65;;
78858;SDS011;68210;52.032;4.634;2023-04-08T12:02:26;13.07;;;7.25;;
78858;SDS011;68210;52.032;4.634;2023-04-08T12:04:27;9.70;;;7.00;;
78858;SDS011;68210;52.032;4.634;2023-04-08T12:06:28;9.00;;;6.90;;
78858;SDS011;68210;52.032;4.634;2023-04-08T12:08:30;13.50;;;6.85;;
78858;SDS011;68210;52.032;4.634;2023-04-08T12:10:30;10.90;;;6.50;;